sensor_id;sensor_type;location;lat;lon;timestamp;P1;durP1;ratioP1;P2;durP2;ratioP2
45388;SDS011;31127;52.078;4.370;2022-07-04T00:02:08;9.40;;;2.45;;
45388;SDS011;31127;52.078;4.370;2022-07-04T00:07:04;9.30;;;2.30;;
45388;SDS011;31127;52.078;4.370;2022-07-04T00:11:59;6.07;;;1.98;;
45388;SDS011;31127;52.078;4.370;2022-07-04T00:16:55;6.72;;;2.40;;
45388;SDS011;31127;52.078;4.370;2022-07-04T00:21:50;13.00;;;2.70;;
45388;SDS011;31127;52.078;4.370;2022-07-04T00:26:45;9.17;;;2.13;;
45388;SDS011;31127;52.078;4.370;2022-07-04T00:31:41;7.03;;;1.83;;
45388;SDS011;31127;52.078;4.370;2022-07-04T00:36:36;8.17;;;2.50;;
45388;SDS011;31127;52.078;4.370;2022-07-04T00:41:31;9.23;;;2.57;;
45388;SDS011;31127;52.078;4.370;2022-07-04T00:46:27;7.60;;;2.38;;
45388;SDS011;31127;52.078;4.370;2022-07-04T00:51:23;5.43;;;2.47;;
45388;SDS011;31127;52.078;4.370;2022-07-04T00:56:18;13.95;;;3.28;;
45388;SDS011;31127;52.078;4.370;2022-07-04T01:01:14;11.38;;;2.42;;
45388;SDS011;31127;52.078;4.370;2022-07-04T01:06:09;7.60;;;2.80;;
45388;SDS011;31127;52.078;4.370;2022-07-04T01:11:05;10.75;;;2.30;;
45388;SDS011;31127;52.078;4.370;2022-07-04T01:16:01;8.68;;;2.70;;
45388;SDS011;31127;52.078;4.370;2022-07-04T01:20:56;8.85;;;2.30;;
45388;SDS011;31127;52.078;4.370;2022-07-04T01:25:51;7.90;;;2.33;;
45388;SDS011;31127;52.078;4.370;2022-07-04T01:30:47;6.55;;;2.40;;
45388;SDS011;31127;52.078;4.370;2022-07-04T01:35:43;10.10;;;2.80;;
45388;SDS011;31127;52.078;4.370;2022-07-04T01:40:38;9.25;;;2.83;;
45388;SDS011;31127;52.078;4.370;2022-07-04T01:50:43;13.20;;;3.38;;
45388;SDS011;31127;52.078;4.370;2022-07-04T01:55:38;7.77;;;2.23;;
45388;SDS011;31127;52.078;4.370;2022-07-04T02:00:33;7.80;;;2.73;;
45388;SDS011;31127;52.078;4.370;2022-07-04T02:05:47;9.68;;;2.47;;
45388;SDS011;31127;52.078;4.370;2022-07-04T02:10:43;10.53;;;2.83;;
45388;SDS011;31127;52.078;4.370;2022-07-04T02:15:40;11.48;;;3.60;;
45388;SDS011;31127;52.078;4.370;2022-07-04T02:20:36;10.82;;;3.65;;
45388;SDS011;31127;52.078;4.370;2022-07-04T02:25:32;10.52;;;2.90;;
45388;SDS011;31127;52.078;4.370;2022-07-04T02:30:27;9.30;;;3.37;;
45388;SDS011;31127;52.078;4.370;2022-07-04T02:35:23;8.67;;;2.60;;
45388;SDS011;31127;52.078;4.370;2022-07-04T02:40:18;12.27;;;3.33;;
45388;SDS011;31127;52.078;4.370;2022-07-04T02:45:13;10.80;;;3.10;;
45388;SDS011;31127;52.078;4.370;2022-07-04T02:50:09;15.27;;;3.08;;
45388;SDS011;31127;52.078;4.370;2022-07-04T03:51:31;9.15;;;3.80;;
45388;SDS011;31127;52.078;4.370;2022-07-04T03:56:26;14.80;;;3.80;;
45388;SDS011;31127;52.078;4.370;2022-07-04T04:11:53;15.50;;;3.83;;
45388;SDS011;31127;52.078;4.370;2022-07-04T04:16:48;14.68;;;4.40;;
45388;SDS011;31127;52.078;4.370;2022-07-04T04:21:44;16.20;;;4.70;;
45388;SDS011;31127;52.078;4.370;2022-07-04T04:44:01;8.95;;;3.10;;
45388;SDS011;31127;52.078;4.370;2022-07-04T04:48:56;10.30;;;3.22;;
45388;SDS011;31127;52.078;4.370;2022-07-04T04:53:52;6.43;;;2.77;;
45388;SDS011;31127;52.078;4.370;2022-07-04T04:58:47;7.93;;;3.13;;
45388;SDS011;31127;52.078;4.370;2022-07-04T05:09:10;3.65;;;2.00;;
45388;SDS011;31127;52.078;4.370;2022-07-04T05:14:05;3.97;;;1.60;;
45388;SDS011;31127;52.078;4.370;2022-07-04T05:19:01;4.80;;;2.08;;
45388;SDS011;31127;52.078;4.370;2022-07-04T05:23:56;4.60;;;2.00;;
45388;SDS011;31127;52.078;4.370;2022-07-04T05:28:51;8.03;;;2.07;;
45388;SDS011;31127;52.078;4.370;2022-07-04T05:33:47;4.47;;;1.63;;
45388;SDS011;31127;52.078;4.370;2022-07-04T05:38:42;3.28;;;1.75;;
45388;SDS011;31127;52.078;4.370;2022-07-04T05:43:37;4.70;;;1.73;;
45388;SDS011;31127;52.078;4.370;2022-07-04T06:30:27;2.83;;;1.80;;
45388;SDS011;31127;52.078;4.370;2022-07-04T06:35:23;4.18;;;1.35;;
45388;SDS011;31127;52.078;4.370;2022-07-04T06:40:38;4.95;;;2.10;;
45388;SDS011;31127;52.078;4.370;2022-07-04T06:45:34;5.75;;;2.15;;
45388;SDS011;31127;52.078;4.370;2022-07-04T06:50:29;3.63;;;1.80;;
45388;SDS011;31127;52.078;4.370;2022-07-04T07:12:44;2.95;;;1.77;;
45388;SDS011;31127;52.078;4.370;2022-07-04T07:17:40;5.30;;;1.70;;
45388;SDS011;31127;52.078;4.370;2022-07-04T07:48:00;2.75;;;1.40;;
45388;SDS011;31127;52.078;4.370;2022-07-04T07:52:56;2.40;;;1.90;;
45388;SDS011;31127;52.078;4.370;2022-07-04T08:09:00;3.83;;;1.80;;
45388;SDS011;31127;52.078;4.370;2022-07-04T08:13:55;2.80;;;1.60;;
45388;SDS011;31127;52.078;4.370;2022-07-04T08:24:13;4.40;;;1.43;;
45388;SDS011;31127;52.078;4.370;2022-07-04T08:29:09;2.08;;;1.20;;
45388;SDS011;31127;52.078;4.370;2022-07-04T08:34:04;3.05;;;1.35;;
45388;SDS011;31127;52.078;4.370;2022-07-04T08:39:00;4.32;;;1.40;;
45388;SDS011;31127;52.078;4.370;2022-07-04T08:49:04;3.42;;;1.50;;
45388;SDS011;31127;52.078;4.370;2022-07-04T08:54:01;4.40;;;1.50;;
45388;SDS011;31127;52.078;4.370;2022-07-04T08:59:16;3.13;;;1.75;;
45388;SDS011;31127;52.078;4.370;2022-07-04T09:04:12;6.95;;;1.95;;
45388;SDS011;31127;52.078;4.370;2022-07-04T09:09:08;4.93;;;2.10;;
45388;SDS011;31127;52.078;4.370;2022-07-04T09:14:04;5.03;;;2.22;;
45388;SDS011;31127;52.078;4.370;2022-07-04T09:18:59;2.33;;;1.43;;
45388;SDS011;31127;52.078;4.370;2022-07-04T09:23:55;5.33;;;1.60;;
45388;SDS011;31127;52.078;4.370;2022-07-04T09:38:41;2.77;;;1.60;;
45388;SDS011;31127;52.078;4.370;2022-07-04T09:43:37;2.03;;;1.15;;
45388;SDS011;31127;52.078;4.370;2022-07-04T09:58:56;2.70;;;1.50;;
45388;SDS011;31127;52.078;4.370;2022-07-04T10:20:20;3.92;;;1.58;;
45388;SDS011;31127;52.078;4.370;2022-07-04T10:25:15;4.88;;;1.77;;
45388;SDS011;31127;52.078;4.370;2022-07-04T10:30:13;4.93;;;1.40;;
45388;SDS011;31127;52.078;4.370;2022-07-04T10:47:25;1.70;;;1.23;;
45388;SDS011;31127;52.078;4.370;2022-07-04T10:57:31;2.40;;;1.50;;
45388;SDS011;31127;52.078;4.370;2022-07-04T11:02:31;2.80;;;1.20;;
45388;SDS011;31127;52.078;4.370;2022-07-04T11:19:09;2.33;;;1.23;;
45388;SDS011;31127;52.078;4.370;2022-07-04T11:29:18;3.22;;;1.52;;
45388;SDS011;31127;52.078;4.370;2022-07-04T11:34:14;3.03;;;1.45;;
45388;SDS011;31127;52.078;4.370;2022-07-04T11:39:10;3.53;;;1.70;;
45388;SDS011;31127;52.078;4.370;2022-07-04T11:44:07;2.05;;;1.40;;
45388;SDS011;31127;52.078;4.370;2022-07-04T11:49:22;1.73;;;1.40;;
45388;SDS011;31127;52.078;4.370;2022-07-04T11:54:17;7.23;;;1.60;;
45388;SDS011;31127;52.078;4.370;2022-07-04T11:59:15;2.67;;;1.30;;
45388;SDS011;31127;52.078;4.370;2022-07-04T12:04:14;3.50;;;1.40;;
45388;SDS011;31127;52.078;4.370;2022-07-04T12:14:19;4.38;;;1.38;;
45388;SDS011;31127;52.078;4.370;2022-07-04T12:19:15;2.17;;;1.40;;
45388;SDS011;31127;52.078;4.370;2022-07-04T12:29:20;2.17;;;1.67;;
45388;SDS011;31127;52.078;4.370;2022-07-04T12:34:16;2.30;;;1.40;;
45388;SDS011;31127;52.078;4.370;2022-07-04T12:39:11;2.33;;;1.50;;
45388;SDS011;31127;52.078;4.370;2022-07-04T12:44:06;2.80;;;1.60;;
45388;SDS011;31127;52.078;4.370;2022-07-04T12:49:02;5.63;;;1.35;;
45388;SDS011;31127;52.078;4.370;2022-07-04T12:53:58;2.50;;;1.50;;
45388;SDS011;31127;52.078;4.370;2022-07-04T12:58:53;2.85;;;1.67;;
45388;SDS011;31127;52.078;4.370;2022-07-04T13:03:49;2.37;;;1.53;;
45388;SDS011;31127;52.078;4.370;2022-07-04T13:08:44;2.90;;;1.50;;
45388;SDS011;31127;52.078;4.370;2022-07-04T13:13:39;2.97;;;1.27;;
45388;SDS011;31127;52.078;4.370;2022-07-04T13:18:34;2.17;;;1.30;;
45388;SDS011;31127;52.078;4.370;2022-07-04T13:23:31;3.95;;;1.35;;
45388;SDS011;31127;52.078;4.370;2022-07-04T13:28:26;1.47;;;1.10;;
45388;SDS011;31127;52.078;4.370;2022-07-04T13:33:21;1.77;;;1.60;;
45388;SDS011;31127;52.078;4.370;2022-07-04T13:38:17;3.83;;;1.15;;
45388;SDS011;31127;52.078;4.370;2022-07-04T13:43:13;3.40;;;1.30;;
45388;SDS011;31127;52.078;4.370;2022-07-04T13:48:11;4.50;;;1.60;;
45388;SDS011;31127;52.078;4.370;2022-07-04T13:53:07;3.50;;;1.50;;
45388;SDS011;31127;52.078;4.370;2022-07-04T13:58:06;2.90;;;1.55;;
45388;SDS011;31127;52.078;4.370;2022-07-04T14:03:02;2.10;;;1.60;;
45388;SDS011;31127;52.078;4.370;2022-07-04T14:07:58;3.30;;;1.70;;
45388;SDS011;31127;52.078;4.370;2022-07-04T14:12:54;3.13;;;1.50;;
45388;SDS011;31127;52.078;4.370;2022-07-04T14:22:57;2.28;;;1.83;;
45388;SDS011;31127;52.078;4.370;2022-07-04T14:27:53;2.60;;;1.90;;
45388;SDS011;31127;52.078;4.370;2022-07-04T14:32:48;3.20;;;1.65;;
45388;SDS011;31127;52.078;4.370;2022-07-04T14:37:44;3.72;;;1.60;;
45388;SDS011;31127;52.078;4.370;2022-07-04T14:42:39;6.07;;;1.90;;
45388;SDS011;31127;52.078;4.370;2022-07-04T14:47:34;2.57;;;1.70;;
45388;SDS011;31127;52.078;4.370;2022-07-04T14:52:30;3.63;;;2.00;;
45388;SDS011;31127;52.078;4.370;2022-07-04T14:57:26;4.50;;;1.95;;
45388;SDS011;31127;52.078;4.370;2022-07-04T15:02:21;2.90;;;1.70;;
45388;SDS011;31127;52.078;4.370;2022-07-04T15:07:16;1.93;;;1.43;;
45388;SDS011;31127;52.078;4.370;2022-07-04T15:12:12;2.20;;;1.53;;
45388;SDS011;31127;52.078;4.370;2022-07-04T15:17:07;2.55;;;1.60;;
45388;SDS011;31127;52.078;4.370;2022-07-04T15:22:03;5.03;;;2.00;;
45388;SDS011;31127;52.078;4.370;2022-07-04T15:32:26;2.10;;;1.65;;
45388;SDS011;31127;52.078;4.370;2022-07-04T15:48:50;3.40;;;2.45;;
45388;SDS011;31127;52.078;4.370;2022-07-04T15:53:45;2.23;;;1.50;;
45388;SDS011;31127;52.078;4.370;2022-07-04T16:03:49;2.55;;;1.50;;
45388;SDS011;31127;52.078;4.370;2022-07-04T16:25:31;3.63;;;1.48;;
45388;SDS011;31127;52.078;4.370;2022-07-04T16:30:26;3.20;;;1.50;;
45388;SDS011;31127;52.078;4.370;2022-07-04T16:35:22;2.20;;;1.73;;
45388;SDS011;31127;52.078;4.370;2022-07-04T16:45:27;5.20;;;1.88;;
45388;SDS011;31127;52.078;4.370;2022-07-04T16:55:45;3.30;;;1.58;;
45388;SDS011;31127;52.078;4.370;2022-07-04T17:00:40;6.00;;;2.07;;
45388;SDS011;31127;52.078;4.370;2022-07-04T17:05:36;4.03;;;2.10;;
45388;SDS011;31127;52.078;4.370;2022-07-04T17:10:31;2.00;;;1.63;;
45388;SDS011;31127;52.078;4.370;2022-07-04T17:15:26;4.33;;;2.20;;
45388;SDS011;31127;52.078;4.370;2022-07-04T17:20:22;4.60;;;1.83;;
45388;SDS011;31127;52.078;4.370;2022-07-04T17:25:17;3.77;;;1.63;;
45388;SDS011;31127;52.078;4.370;2022-07-04T17:30:13;5.20;;;1.85;;
45388;SDS011;31127;52.078;4.370;2022-07-04T17:35:09;4.00;;;2.13;;
45388;SDS011;31127;52.078;4.370;2022-07-04T17:40:04;5.47;;;2.10;;
45388;SDS011;31127;52.078;4.370;2022-07-04T17:45:00;4.68;;;1.95;;
45388;SDS011;31127;52.078;4.370;2022-07-04T17:49:55;2.27;;;1.53;;
45388;SDS011;31127;52.078;4.370;2022-07-04T17:54:51;4.57;;;1.90;;
45388;SDS011;31127;52.078;4.370;2022-07-04T17:59:46;2.80;;;1.73;;
45388;SDS011;31127;52.078;4.370;2022-07-04T18:04:48;3.05;;;1.60;;
45388;SDS011;31127;52.078;4.370;2022-07-04T18:09:43;5.65;;;2.13;;
45388;SDS011;31127;52.078;4.370;2022-07-04T18:14:39;3.75;;;1.65;;
45388;SDS011;31127;52.078;4.370;2022-07-04T18:19:34;3.10;;;1.50;;
45388;SDS011;31127;52.078;4.370;2022-07-04T18:24:30;1.65;;;1.33;;
45388;SDS011;31127;52.078;4.370;2022-07-04T18:29:25;3.35;;;1.75;;
45388;SDS011;31127;52.078;4.370;2022-07-04T18:34:21;6.83;;;1.80;;
45388;SDS011;31127;52.078;4.370;2022-07-04T18:39:17;2.58;;;1.58;;
45388;SDS011;31127;52.078;4.370;2022-07-04T18:44:12;3.75;;;1.70;;
45388;SDS011;31127;52.078;4.370;2022-07-04T18:49:08;3.80;;;2.23;;
45388;SDS011;31127;52.078;4.370;2022-07-04T19:39:36;6.53;;;2.00;;
45388;SDS011;31127;52.078;4.370;2022-07-04T19:51:06;4.95;;;2.20;;
45388;SDS011;31127;52.078;4.370;2022-07-04T19:56:05;6.80;;;1.98;;
45388;SDS011;31127;52.078;4.370;2022-07-04T20:01:00;3.38;;;1.50;;
45388;SDS011;31127;52.078;4.370;2022-07-04T20:05:56;6.22;;;1.90;;
45388;SDS011;31127;52.078;4.370;2022-07-04T20:10:52;4.93;;;2.28;;
45388;SDS011;31127;52.078;4.370;2022-07-04T20:15:47;8.40;;;2.50;;
45388;SDS011;31127;52.078;4.370;2022-07-04T20:20:42;5.43;;;2.40;;
45388;SDS011;31127;52.078;4.370;2022-07-04T20:25:38;7.10;;;2.43;;
45388;SDS011;31127;52.078;4.370;2022-07-04T20:30:34;2.85;;;2.30;;
45388;SDS011;31127;52.078;4.370;2022-07-04T20:35:29;7.63;;;2.93;;
45388;SDS011;31127;52.078;4.370;2022-07-04T20:40:25;4.45;;;2.60;;
45388;SDS011;31127;52.078;4.370;2022-07-04T20:45:20;7.20;;;2.70;;
45388;SDS011;31127;52.078;4.370;2022-07-04T20:50:16;7.93;;;2.92;;
45388;SDS011;31127;52.078;4.370;2022-07-04T20:55:11;5.73;;;2.80;;
45388;SDS011;31127;52.078;4.370;2022-07-04T21:00:07;5.40;;;2.75;;
45388;SDS011;31127;52.078;4.370;2022-07-04T21:10:11;5.20;;;3.25;;
45388;SDS011;31127;52.078;4.370;2022-07-04T21:20:29;3.80;;;2.30;;
45388;SDS011;31127;52.078;4.370;2022-07-04T21:30:47;5.43;;;2.75;;
45388;SDS011;31127;52.078;4.370;2022-07-04T21:35:43;4.15;;;2.75;;
45388;SDS011;31127;52.078;4.370;2022-07-04T21:40:39;6.32;;;2.50;;
45388;SDS011;31127;52.078;4.370;2022-07-04T21:45:34;3.70;;;2.20;;
45388;SDS011;31127;52.078;4.370;2022-07-04T21:50:29;5.43;;;2.20;;
45388;SDS011;31127;52.078;4.370;2022-07-04T21:55:25;6.20;;;2.75;;
45388;SDS011;31127;52.078;4.370;2022-07-04T22:00:21;7.85;;;2.85;;
45388;SDS011;31127;52.078;4.370;2022-07-04T22:05:16;3.28;;;2.05;;
45388;SDS011;31127;52.078;4.370;2022-07-04T22:15:20;5.32;;;2.65;;
45388;SDS011;31127;52.078;4.370;2022-07-04T22:20:15;7.65;;;3.35;;
45388;SDS011;31127;52.078;4.370;2022-07-04T22:25:10;4.88;;;2.55;;
45388;SDS011;31127;52.078;4.370;2022-07-04T22:30:06;5.45;;;2.75;;
45388;SDS011;31127;52.078;4.370;2022-07-04T22:35:02;6.05;;;2.85;;
45388;SDS011;31127;52.078;4.370;2022-07-04T22:39:58;4.53;;;2.60;;
45388;SDS011;31127;52.078;4.370;2022-07-04T22:44:53;5.07;;;2.57;;
45388;SDS011;31127;52.078;4.370;2022-07-04T22:49:49;4.77;;;2.20;;
45388;SDS011;31127;52.078;4.370;2022-07-04T22:54:46;5.15;;;2.80;;
45388;SDS011;31127;52.078;4.370;2022-07-04T22:59:47;6.82;;;3.08;;
45388;SDS011;31127;52.078;4.370;2022-07-04T23:04:44;3.67;;;2.40;;
45388;SDS011;31127;52.078;4.370;2022-07-04T23:09:39;6.90;;;2.70;;
45388;SDS011;31127;52.078;4.370;2022-07-04T23:14:34;7.22;;;2.88;;
45388;SDS011;31127;52.078;4.370;2022-07-04T23:19:30;5.20;;;2.45;;
45388;SDS011;31127;52.078;4.370;2022-07-04T23:24:26;4.07;;;3.00;;
45388;SDS011;31127;52.078;4.370;2022-07-04T23:29:21;4.88;;;3.17;;
45388;SDS011;31127;52.078;4.370;2022-07-04T23:34:17;6.05;;;3.00;;
45388;SDS011;31127;52.078;4.370;2022-07-04T23:39:12;5.20;;;2.90;;
45388;SDS011;31127;52.078;4.370;2022-07-04T23:44:08;5.03;;;2.90;;
45388;SDS011;31127;52.078;4.370;2022-07-04T23:49:03;5.43;;;3.13;;
45388;SDS011;31127;52.078;4.370;2022-07-04T23:53:59;9.63;;;3.47;;
45388;SDS011;31127;52.078;4.370;2022-07-04T23:58:54;5.05;;;3.10;;
